Time;durP1;ratioP1;P1;durP2;ratioP2;P2;SDS_P1;SDS_P2;PMS_P1;PMS_P2;Temp;Humidity;BMP_temperature;BMP_pressure;BME280_temperature;BME280_humidity;BME280_pressure;Samples;Min_cycle;Max_cycle;Signal;HPM_P1;HPM_P2
2024/01/16 00:01:34;;;;;;;5.70;1.30;;;;;;;;;;5097344;28;19981;-84
2024/01/16 00:04:00;;;;;;;6.68;1.38;;;;;;;;;;5097184;28;20054;-84
2024/01/16 00:06:26;;;;;;;;;;;;;;;;;;5084759;28;20050;-84
2024/01/16 00:08:52;;;;;;;9.20;1.50;;;;;;;;;;5111820;28;19919;-83
2024/01/16 00:11:18;;;;;;;;;;;;;;;;;;5090302;28;20046;-84
2024/01/16 00:13:44;;;;;;;8.30;2.28;;;;;;;;;;5088990;28;19927;-83
2024/01/16 00:16:10;;;;;;;;;;;;;;;;;;5112908;28;20047;-83
2024/01/16 00:18:36;;;;;;;8.93;1.63;;;;;;;;;;5114005;28;19920;-83
2024/01/16 00:21:03;;;;;;;10.63;1.58;;;;;;;;;;5113729;28;20493;-84
2024/01/16 00:23:31;;;;;;;;;;;;;;;;;;5097907;28;20047;-84
2024/01/16 00:25:57;;;;;;;3.55;1.20;;;;;;;;;;5097402;28;19946;-84
2024/01/16 00:28:23;;;;;;;;;;;;;;;;;;5095763;28;20069;-84
2024/01/16 00:30:49;;;;;;;7.82;1.30;;;;;;;;;;5111654;28;20373;-84
2024/01/16 00:33:15;;;;;;;;;;;;;;;;;;5112946;28;20067;-84
2024/01/16 00:35:41;;;;;;;5.80;1.08;;;;;;;;;;5093350;28;19942;-84
2024/01/16 00:38:07;;;;;;;9.60;1.38;;;;;;;;;;5107220;28;20040;-83
2024/01/16 00:40:33;;;;;;;;;;;;;;;;;;5097675;28;20381;-84
2024/01/16 00:42:59;;;;;;;5.20;1.50;;;;;;;;;;5113104;28;19945;-84
2024/01/16 00:45:25;;;;;;;;;;;;;;;;;;5113620;28;20043;-84
2024/01/16 00:47:51;;;;;;;7.22;1.20;;;;;;;;;;5113885;28;20383;-84
2024/01/16 00:50:17;;;;;;;;;;;;;;;;;;5087321;28;20040;-84
2024/01/16 00:52:44;;;;;;;10.10;1.67;;;;;;;;;;5093430;28;19920;-84
2024/01/16 00:55:10;;;;;;;10.20;1.60;;;;;;;;;;5109434;28;20366;-84
2024/01/16 00:57:36;;;;;;;;;;;;;;;;;;5120950;27;20047;-83
2024/01/16 01:00:03;;;;;;;3.83;1.08;;;;;;;;;;5113072;28;19980;-84
2024/01/16 01:02:29;;;;;;;7.63;1.15;;;;;;;;;;5096734;28;20055;-85
2024/01/16 01:04:55;;;;;;;;;;;;;;;;;;5097299;28;20039;-85
2024/01/16 01:07:21;;;;;;;6.30;1.58;;;;;;;;;;5113075;28;19920;-84
2024/01/16 01:09:48;;;;;;;8.00;1.35;;;;;;;;;;5113917;28;20433;-84
2024/01/16 01:12:13;;;;;;;;;;;;;;;;;;5111385;28;20062;-84
2024/01/16 01:14:39;;;;;;;7.97;1.17;;;;;;;;;;5077223;28;20368;-84
2024/01/16 01:17:06;;;;;;;;;;;;;;;;;;5093577;28;20185;-83
2024/01/16 01:19:32;;;;;;;8.45;1.80;;;;;;;;;;5127190;27;19920;-84
2024/01/16 01:21:58;;;;;;;;;;;;;;;;;;5090470;28;20048;-85
2024/01/16 01:24:24;;;;;;;4.90;1.30;;;;;;;;;;5109924;28;20384;-84
2024/01/16 01:26:50;;;;;;;;;;;;;;;;;;5113513;28;20555;-84
2024/01/16 01:29:17;;;;;;;8.95;1.30;;;;;;;;;;5080134;28;20089;-84
2024/01/16 01:31:47;;;;;;;5.22;1.30;;;;;;;;;;5075798;28;20048;-84
2024/01/16 01:34:13;;;;;;;6.28;1.10;;;;;;;;;;5082552;28;20051;-84
2024/01/16 01:36:39;;;;;;;;;;;;;;;;;;5097021;28;20043;-85
2024/01/16 01:39:05;;;;;;;14.02;2.33;;;;;;;;;;5096100;28;20011;-84
2024/01/16 01:41:31;;;;;;;4.70;1.25;;;;;;;;;;5095627;28;20067;-85
2024/01/16 01:43:57;;;;;;;;;;;;;;;;;;5075507;28;20048;-84
2024/01/16 01:46:23;;;;;;;6.95;1.30;;;;;;;;;;5091772;28;19927;-85
2024/01/16 01:48:49;;;;;;;;;;;;;;;;;;5076164;28;20095;-82
2024/01/16 01:51:18;;;;;;;10.20;1.25;;;;;;;;;;5092161;28;19959;-82
2024/01/16 01:53:45;;;;;;;7.90;1.10;;;;;;;;;;5096335;28;20079;-81
2024/01/16 01:56:15;;;;;;;8.10;1.58;;;;;;;;;;5095565;28;20055;-81
2024/01/16 01:58:42;;;;;;;7.75;1.10;;;;;;;;;;5093281;28;20075;-82
2024/01/16 02:01:08;;;;;;;2.90;0.95;;;;;;;;;;5091900;28;20052;-82
2024/01/16 02:03:37;;;;;;;2.50;0.93;;;;;;;;;;5080264;28;20100;-81
2024/01/16 02:06:03;;;;;;;5.45;1.20;;;;;;;;;;5095926;28;20046;-82
2024/01/16 02:08:29;;;;;;;;;;;;;;;;;;5111327;28;20060;-82
2024/01/16 02:10:55;;;;;;;7.30;1.20;;;;;;;;;;5095518;28;20010;-82
2024/01/16 02:13:23;;;;;;;;;;;;;;;;;;5094438;28;20060;-82
2024/01/16 02:15:49;;;;;;;5.57;1.30;;;;;;;;;;5111788;28;20072;-82
2024/01/16 02:18:16;;;;;;;4.30;1.10;;;;;;;;;;5093779;28;20130;-81
2024/01/16 02:20:42;;;;;;;7.85;1.10;;;;;;;;;;5110042;28;20051;-83
2024/01/16 02:23:10;;;;;;;4.70;2.05;;;;;;;;;;5111168;28;20040;-83
2024/01/16 02:25:36;;;;;;;6.05;1.52;;;;;;;;;;5111712;28;20640;-84
2024/01/16 02:28:03;;;;;;;;;;;;;;;;;;5105340;28;20499;-83
2024/01/16 02:30:29;;;;;;;4.90;1.00;;;;;;;;;;5111142;28;19971;-83
2024/01/16 02:32:56;;;;;;;6.15;1.70;;;;;;;;;;5112232;28;20499;-83
2024/01/16 02:35:21;;;;;;;;;;;;;;;;;;5078568;28;20044;-82
2024/01/16 02:37:47;;;;;;;4.63;1.60;;;;;;;;;;5125830;27;19924;-84
2024/01/16 02:40:13;;;;;;;;;;;;;;;;;;5092131;28;20105;-83
2024/01/16 02:42:39;;;;;;;6.70;1.13;;;;;;;;;;5140251;27;19919;-83
2024/01/16 02:45:05;;;;;;;;;;;;;;;;;;5095026;28;20142;-83
2024/01/16 02:47:31;;;;;;;5.28;1.63;;;;;;;;;;5111521;28;20006;-83
2024/01/16 02:49:57;;;;;;;;;;;;;;;;;;5112390;28;20073;-83
2024/01/16 02:52:23;;;;;;;13.25;1.40;;;;;;;;;;5098067;28;19927;-83
2024/01/16 02:54:49;;;;;;;;;;;;;;;;;;5074541;28;20079;-83
2024/01/16 02:57:15;;;;;;;9.40;1.35;;;;;;;;;;5125647;27;19966;-83
2024/01/16 02:59:41;;;;;;;;;;;;;;;;;;5073229;28;20032;-83
2024/01/16 03:02:08;;;;;;;9.57;1.60;;;;;;;;;;5125661;27;19920;-83
2024/01/16 03:04:34;;;;;;;11.85;1.40;;;;;;;;;;5104370;28;20047;-84
2024/01/16 03:07:00;;;;;;;9.88;1.70;;;;;;;;;;5094805;28;20098;-83
2024/01/16 03:09:26;;;;;;;;;;;;;;;;;;5093557;28;20063;-83
2024/01/16 03:11:52;;;;;;;5.47;1.20;;;;;;;;;;5111347;28;19920;-83
2024/01/16 03:14:19;;;;;;;12.88;1.40;;;;;;;;;;5093549;28;20039;-84
2024/01/16 03:16:45;;;;;;;5.55;1.23;;;;;;;;;;5097282;28;20192;-83
2024/01/16 03:19:12;;;;;;;;;;;;;;;;;;5079307;28;20042;-83
2024/01/16 03:21:38;;;;;;;6.70;1.40;;;;;;;;;;5105387;28;20380;-84
2024/01/16 03:24:05;;;;;;;8.73;1.60;;;;;;;;;;5073951;28;20050;-83
2024/01/16 03:26:32;;;;;;;8.48;1.80;;;;;;;;;;5073411;28;20090;-84
2024/01/16 03:28:58;;;;;;;7.80;1.40;;;;;;;;;;5068671;28;20052;-83
2024/01/16 03:31:24;;;;;;;;;;;;;;;;;;5094289;28;20060;-84
2024/01/16 03:33:50;;;;;;;13.65;1.50;;;;;;;;;;5110887;28;19926;-82
2024/01/16 03:36:16;;;;;;;;;;;;;;;;;;5094361;28;20438;-83
2024/01/16 03:38:43;;;;;;;7.45;1.52;;;;;;;;;;5106858;28;19920;-83
2024/01/16 03:41:09;;;;;;;7.40;1.52;;;;;;;;;;5094313;28;20048;-83
2024/01/16 03:43:35;;;;;;;7.15;1.58;;;;;;;;;;5075540;28;20055;-83
2024/01/16 03:46:01;;;;;;;5.05;1.48;;;;;;;;;;5073477;28;20047;-84
2024/01/16 03:48:27;;;;;;;;;;;;;;;;;;5057894;28;20138;-81
2024/01/16 03:50:56;;;;;;;10.63;1.50;;;;;;;;;;5124540;28;19920;-83
2024/01/16 03:53:22;;;;;;;4.90;1.85;;;;;;;;;;5089879;28;20135;-84
2024/01/16 03:55:49;;;;;;;6.22;1.52;;;;;;;;;;5106409;28;20076;-83
2024/01/16 03:58:16;;;;;;;9.52;1.60;;;;;;;;;;5105009;28;20088;-84
2024/01/16 04:00:42;;;;;;;8.30;2.17;;;;;;;;;;5093010;28;20044;-84
2024/01/16 04:03:08;;;;;;;6.07;1.45;;;;;;;;;;5094953;28;20036;-83
2024/01/16 04:05:35;;;;;;;6.35;1.50;;;;;;;;;;5107591;28;20494;-83
2024/01/16 04:08:01;;;;;;;3.97;1.77;;;;;;;;;;5110677;28;20051;-84
2024/01/16 04:10:27;;;;;;;8.02;1.92;;;;;;;;;;5094001;28;20047;-84
2024/01/16 04:12:53;;;;;;;;;;;;;;;;;;5092864;28;20556;-83
2024/01/16 04:15:19;;;;;;;8.80;1.85;;;;;;;;;;5110244;28;20056;-84
2024/01/16 04:17:45;;;;;;;;;;;;;;;;;;5093853;28;20051;-83
2024/01/16 04:20:11;;;;;;;8.60;1.17;;;;;;;;;;5110907;28;19926;-85
2024/01/16 04:22:37;;;;;;;11.80;1.73;;;;;;;;;;5110084;28;20404;-84
2024/01/16 04:25:04;;;;;;;;;;;;;;;;;;5092255;28;20118;-84
2024/01/16 04:27:31;;;;;;;4.53;1.35;;;;;;;;;;5089206;28;19926;-83
2024/01/16 04:29:57;;;;;;;8.35;1.52;;;;;;;;;;5073364;28;20066;-85
2024/01/16 04:32:23;;;;;;;;;;;;;;;;;;5094798;28;20076;-85
2024/01/16 04:34:50;;;;;;;10.35;1.90;;;;;;;;;;5143341;27;19919;-84
2024/01/16 04:37:16;;;;;;;6.80;1.30;;;;;;;;;;5097564;28;20052;-85
2024/01/16 04:39:42;;;;;;;;;;;;;;;;;;5114090;28;20043;-85
2024/01/16 04:42:08;;;;;;;7.25;1.55;;;;;;;;;;5092522;28;20011;-85
2024/01/16 04:44:34;;;;;;;;;;;;;;;;;;5093063;28;20055;-83
2024/01/16 04:47:00;;;;;;;7.15;1.55;;;;;;;;;;5127643;27;19919;-85
2024/01/16 04:49:26;;;;;;;;;;;;;;;;;;5084512;28;20036;-84
2024/01/16 04:51:52;;;;;;;8.40;1.40;;;;;;;;;;5113444;28;20052;-84
2024/01/16 04:54:18;;;;;;;10.52;1.35;;;;;;;;;;5085836;28;20040;-85
2024/01/16 04:56:44;;;;;;;;;;;;;;;;;;5076673;28;20144;-85
2024/01/16 04:59:10;;;;;;;5.45;1.25;;;;;;;;;;5119624;27;20381;-85
2024/01/16 05:01:36;;;;;;;;;;;;;;;;;;5076828;28;20043;-83
2024/01/16 05:04:03;;;;;;;8.95;1.30;;;;;;;;;;5127833;27;20265;-84
2024/01/16 05:06:29;;;;;;;5.47;1.17;;;;;;;;;;5093694;28;20489;-85
2024/01/16 05:08:56;;;;;;;5.45;1.13;;;;;;;;;;5075396;28;20056;-85
2024/01/16 05:11:22;;;;;;;7.15;1.65;;;;;;;;;;5093342;28;20052;-85
2024/01/16 05:13:48;;;;;;;;;;;;;;;;;;5084779;28;20057;-85
2024/01/16 05:16:14;;;;;;;8.27;1.40;;;;;;;;;;5097593;28;20006;-85
2024/01/16 05:18:40;;;;;;;;;;;;;;;;;;5093350;28;20400;-85
2024/01/16 05:21:07;;;;;;;6.38;1.40;;;;;;;;;;5110322;28;20006;-85
2024/01/16 05:23:33;;;;;;;11.75;2.25;;;;;;;;;;5092958;28;20097;-85
2024/01/16 05:25:59;;;;;;;;;;;;;;;;;;5093201;28;20070;-86
2024/01/16 05:28:25;;;;;;;8.82;1.70;;;;;;;;;;5142597;27;20284;-86
2024/01/16 05:30:51;;;;;;;;;;;;;;;;;;5112708;28;20465;-85
2024/01/16 05:33:17;;;;;;;12.68;1.65;;;;;;;;;;5113564;28;19969;-86
2024/01/16 05:35:43;;;;;;;;;;;;;;;;;;5110350;27;20036;-86
2024/01/16 05:38:09;;;;;;;9.02;1.30;;;;;;;;;;5113174;28;19969;-85
2024/01/16 05:40:35;;;;;;;;;;;;;;;;;;5096804;28;20054;-86
2024/01/16 05:43:01;;;;;;;8.63;1.90;;;;;;;;;;5081529;28;19920;-86
2024/01/16 05:45:28;;;;;;;8.65;1.52;;;;;;;;;;5092489;28;20393;-85
2024/01/16 05:47:54;;;;;;;4.63;1.58;;;;;;;;;;5075314;28;20048;-86
2024/01/16 05:50:20;;;;;;;9.48;1.65;;;;;;;;;;5111769;28;20503;-86
2024/01/16 05:52:46;;;;;;;;;;;;;;;;;;5099858;28;20101;-85
2024/01/16 05:55:12;;;;;;;8.85;1.80;;;;;;;;;;5109729;28;19920;-85
2024/01/16 05:57:38;;;;;;;;;;;;;;;;;;5094244;28;20036;-85
2024/01/16 06:00:05;;;;;;;6.38;1.48;;;;;;;;;;5111882;28;19920;-86
2024/01/16 06:02:32;;;;;;;5.78;1.35;;;;;;;;;;5113018;28;20652;-86
2024/01/16 06:04:58;;;;;;;7.10;1.85;;;;;;;;;;5112369;28;20086;-86
2024/01/16 06:07:24;;;;;;;;;;;;;;;;;;5083920;28;20397;-86
2024/01/16 06:09:50;;;;;;;13.90;1.60;;;;;;;;;;5108400;28;19931;-87
2024/01/16 06:12:16;;;;;;;;;;;;;;;;;;5107506;28;20050;-86
2024/01/16 06:14:42;;;;;;;10.02;2.05;;;;;;;;;;5110587;28;19920;-86
2024/01/16 06:17:08;;;;;;;;;;;;;;;;;;5112638;28;20496;-86
2024/01/16 06:19:34;;;;;;;13.60;1.92;;;;;;;;;;5080054;28;19926;-86
2024/01/16 06:22:00;;;;;;;;;;;;;;;;;;5083530;28;20090;-86
2024/01/16 06:24:26;;;;;;;9.82;2.25;;;;;;;;;;5112550;28;19920;-86
2024/01/16 06:26:52;;;;;;;4.82;1.65;;;;;;;;;;5112163;28;20047;-87
2024/01/16 06:29:18;;;;;;;;;;;;;;;;;;5095193;28;20044;-86
2024/01/16 06:31:44;;;;;;;7.65;1.92;;;;;;;;;;5090203;28;20383;-86
2024/01/16 06:34:10;;;;;;;;;;;;;;;;;;5058857;28;20044;-88
2024/01/16 06:36:36;;;;;;;7.80;1.95;;;;;;;;;;5109092;28;19923;-87
2024/01/16 06:39:03;;;;;;;;;;;;;;;;;;5091699;28;20136;-86
2024/01/16 06:41:29;;;;;;;5.90;2.55;;;;;;;;;;5094328;28;19919;-87
2024/01/16 06:43:55;;;;;;;12.88;2.13;;;;;;;;;;5078795;28;20055;-88
2024/01/16 06:46:21;;;;;;;;;;;;;;;;;;5075282;28;20054;-87
2024/01/16 06:48:48;;;;;;;8.73;2.35;;;;;;;;;;5110637;28;19973;-84
2024/01/16 06:51:15;;;;;;;7.63;2.25;;;;;;;;;;5112672;28;20100;-87
2024/01/16 06:53:41;;;;;;;8.23;2.40;;;;;;;;;;5111831;28;20088;-88
2024/01/16 06:56:08;;;;;;;;;;;;;;;;;;5111898;28;20044;-87
2024/01/16 06:58:35;;;;;;;8.00;3.05;;;;;;;;;;5100199;28;20003;-88
2024/01/16 07:01:01;;;;;;;14.10;2.72;;;;;;;;;;5059924;28;20051;-87
2024/01/16 07:03:27;;;;;;;;;;;;;;;;;;5074675;28;20055;-87
2024/01/16 07:05:53;;;;;;;7.63;1.90;;;;;;;;;;5125187;27;19927;-87
2024/01/16 07:08:19;;;;;;;;;;;;;;;;;;5092293;28;20465;-87
2024/01/16 07:10:46;;;;;;;8.50;2.63;;;;;;;;;;5094740;28;20025;-88
2024/01/16 07:13:12;;;;;;;7.22;2.80;;;;;;;;;;5090940;28;20055;-87
2024/01/16 07:15:38;;;;;;;9.82;3.35;;;;;;;;;;5094310;28;20040;-86
2024/01/16 07:18:04;;;;;;;7.35;2.85;;;;;;;;;;5094232;28;20507;-81
2024/01/16 07:20:30;;;;;;;;;;;;;;;;;;5095405;28;20047;-83
2024/01/16 07:22:56;;;;;;;11.93;2.92;;;;;;;;;;5090881;28;19927;-84
2024/01/16 07:25:22;;;;;;;;;;;;;;;;;;5105484;28;20114;-83
2024/01/16 07:27:49;;;;;;;10.77;3.30;;;;;;;;;;5093226;28;20012;-84
2024/01/16 07:30:16;;;;;;;12.25;3.03;;;;;;;;;;5105719;28;20044;-83
2024/01/16 07:32:42;;;;;;;9.60;3.00;;;;;;;;;;5091055;28;20393;-85
2024/01/16 07:35:08;;;;;;;;;;;;;;;;;;5090501;28;20040;-84
2024/01/16 07:37:34;;;;;;;12.07;3.25;;;;;;;;;;5125180;27;19920;-87
2024/01/16 07:40:00;;;;;;;;;;;;;;;;;;5068043;28;20047;-85
2024/01/16 07:42:26;;;;;;;11.15;3.00;;;;;;;;;;5107230;28;19973;-89
2024/01/16 07:44:54;;;;;;;10.13;3.45;;;;;;;;;;5081682;28;20055;-88
2024/01/16 07:47:20;;;;;;;8.73;3.00;;;;;;;;;;5102068;28;20404;-89
2024/01/16 07:49:46;;;;;;;;;;;;;;;;;;5076899;28;20058;-90
2024/01/16 07:52:13;;;;;;;11.35;3.42;;;;;;;;;;5112016;28;19920;-88
2024/01/16 07:54:39;;;;;;;10.55;3.47;;;;;;;;;;5095093;28;20147;-87
2024/01/16 07:57:05;;;;;;;;;;;;;;;;;;5111969;28;20055;-89
2024/01/16 07:59:31;;;;;;;11.70;3.40;;;;;;;;;;5125408;28;20357;-90
2024/01/16 08:01:57;;;;;;;10.90;3.80;;;;;;;;;;5091491;28;20040;-87
2024/01/16 08:04:23;;;;;;;;;;;;;;;;;;5084973;28;20047;-86
2024/01/16 08:06:49;;;;;;;11.68;4.28;;;;;;;;;;5140867;27;19943;-91
2024/01/16 08:09:15;;;;;;;;;;;;;;;;;;5098751;28;20066;-89
2024/01/16 08:11:41;;;;;;;10.85;3.40;;;;;;;;;;5096202;28;19923;-89
2024/01/16 08:14:08;;;;;;;9.65;3.55;;;;;;;;;;5077666;28;20063;-88
2024/01/16 08:16:34;;;;;;;9.50;3.67;;;;;;;;;;5112980;28;20138;-89
2024/01/16 08:19:00;;;;;;;;;;;;;;;;;;5116195;28;20142;-86
2024/01/16 08:21:26;;;;;;;11.38;4.45;;;;;;;;;;5098969;28;19975;-88
2024/01/16 08:23:52;;;;;;;;;;;;;;;;;;5097065;28;20097;-89
2024/01/16 08:26:18;;;;;;;11.43;4.00;;;;;;;;;;5097260;28;19920;-89
2024/01/16 08:28:44;;;;;;;9.20;4.20;;;;;;;;;;5098600;28;20046;-89
2024/01/16 08:31:10;;;;;;;10.90;4.10;;;;;;;;;;5107048;28;20079;-90
2024/01/16 08:33:37;;;;;;;;;;;;;;;;;;5079420;28;20044;-88
2024/01/16 08:36:04;;;;;;;12.60;3.90;;;;;;;;;;5094577;28;20015;-86
2024/01/16 08:38:30;;;;;;;14.15;4.28;;;;;;;;;;5080743;28;20286;-91
2024/01/16 08:40:56;;;;;;;;;;;;;;;;;;5098472;28;20048;-88
2024/01/16 08:43:22;;;;;;;16.30;4.82;;;;;;;;;;5089617;28;19923;-86
2024/01/16 08:45:48;;;;;;;12.02;4.07;;;;;;;;;;5091303;28;20063;-87
2024/01/16 08:48:14;;;;;;;;;;;;;;;;;;5097176;28;20050;-88
2024/01/16 08:50:41;;;;;;;11.57;4.10;;;;;;;;;;5106671;28;19920;-88
2024/01/16 08:53:07;;;;;;;11.65;4.22;;;;;;;;;;5124978;27;20046;-89
2024/01/16 08:55:33;;;;;;;11.55;4.18;;;;;;;;;;5112326;27;20118;-89
2024/01/16 08:57:59;;;;;;;14.00;4.43;;;;;;;;;;5096268;28;20104;-88
2024/01/16 09:00:25;;;;;;;;;;;;;;;;;;5105564;28;20492;-88
2024/01/16 09:02:51;;;;;;;12.95;4.93;;;;;;;;;;5113514;28;19975;-84
2024/01/16 09:05:17;;;;;;;;;;;;;;;;;;5130112;27;20048;-87
2024/01/16 09:07:43;;;;;;;18.48;6.43;;;;;;;;;;5113679;28;19942;-88
2024/01/16 09:10:09;;;;;;;;;;;;;;;;;;5093925;28;20060;-88
2024/01/16 09:12:35;;;;;;;15.82;5.40;;;;;;;;;;5093578;28;19919;-86
2024/01/16 09:15:01;;;;;;;12.18;5.07;;;;;;;;;;5094381;28;20040;-89
2024/01/16 09:17:27;;;;;;;;;;;;;;;;;;5089319;28;20817;-89
2024/01/16 09:19:53;;;;;;;15.82;4.97;;;;;;;;;;5088744;28;20015;-88
2024/01/16 09:22:19;;;;;;;;;;;;;;;;;;5093577;28;20109;-87
2024/01/16 09:24:45;;;;;;;18.08;6.68;;;;;;;;;;5111852;28;20349;-85
2024/01/16 09:27:14;;;;;;;;;;;;;;;;;;5077127;28;20044;-85
2024/01/16 09:29:40;;;;;;;14.73;5.75;;;;;;;;;;5095765;28;19920;-85
2024/01/16 09:32:06;;;;;;;17.52;5.75;;;;;;;;;;5085369;28;20043;-86
2024/01/16 09:34:32;;;;;;;;;;;;;;;;;;5089967;28;20047;-87
2024/01/16 09:37:00;;;;;;;15.70;5.65;;;;;;;;;;5129373;27;19920;-87
2024/01/16 09:39:27;;;;;;;22.80;7.57;;;;;;;;;;5112197;28;20047;-86
2024/01/16 09:41:53;;;;;;;;;;;;;;;;;;5113600;28;20103;-87
2024/01/16 09:44:19;;;;;;;20.23;6.55;;;;;;;;;;5087932;28;20430;-87
2024/01/16 09:46:47;;;;;;;11.75;6.00;;;;;;;;;;5104501;28;20051;-86
2024/01/16 09:49:15;;;;;;;13.35;6.18;;;;;;;;;;5082074;28;20043;-83
2024/01/16 09:51:41;;;;;;;17.05;6.13;;;;;;;;;;5083967;28;20048;-87
2024/01/16 09:54:08;;;;;;;;;;;;;;;;;;5075156;28;20489;-87
2024/01/16 09:56:36;;;;;;;20.33;6.88;;;;;;;;;;5087543;28;19928;-86
2024/01/16 09:59:05;;;;;;;12.57;5.70;;;;;;;;;;5095018;28;20074;-87
2024/01/16 10:01:33;;;;;;;15.88;6.43;;;;;;;;;;5111910;28;20062;-84
2024/01/16 10:04:00;;;;;;;15.90;6.25;;;;;;;;;;5084099;28;20374;-86
2024/01/16 10:06:28;;;;;;;17.00;5.95;;;;;;;;;;5105659;28;20511;-87
2024/01/16 10:08:54;;;;;;;15.95;6.45;;;;;;;;;;5095334;28;20492;-87
2024/01/16 10:11:20;;;;;;;;;;;;;;;;;;5094499;28;20039;-86
2024/01/16 10:13:46;;;;;;;16.38;6.13;;;;;;;;;;5095095;28;19931;-81
2024/01/16 10:16:12;;;;;;;18.73;6.47;;;;;;;;;;5111862;28;20398;-90
2024/01/16 10:18:38;;;;;;;;;;;;;;;;;;5075476;28;20086;-85
2024/01/16 10:21:05;;;;;;;12.85;6.00;;;;;;;;;;5085683;28;19963;-88
2024/01/16 10:23:32;;;;;;;13.07;5.47;;;;;;;;;;5088043;28;20036;-89
2024/01/16 10:26:07;;;;;;;16.88;5.30;;;;;;;;;;5091730;28;20036;-87
2024/01/16 10:28:34;;;;;;;14.38;6.05;;;;;;;;;;5093417;28;20138;-89
2024/01/16 10:31:07;;;;;;;14.23;5.90;;;;;;;;;;5092514;28;20447;-88
2024/01/16 10:33:33;;;;;;;12.60;5.18;;;;;;;;;;5093205;28;20126;-88
2024/01/16 10:35:59;;;;;;;;;;;;;;;;;;5095119;28;20122;-86
2024/01/16 10:38:25;;;;;;;12.10;5.07;;;;;;;;;;5094866;28;20010;-87
2024/01/16 10:41:05;;;;;;;13.05;5.18;;;;;;;;;;5094999;28;20096;-87
2024/01/16 10:43:31;;;;;;;14.65;4.65;;;;;;;;;;5109282;28;20127;-87
2024/01/16 10:45:57;;;;;;;;;;;;;;;;;;5093566;28;20051;-87
2024/01/16 10:48:23;;;;;;;10.27;4.32;;;;;;;;;;5106556;28;19920;-87
2024/01/16 10:50:49;;;;;;;;;;;;;;;;;;5103437;28;20043;-87
2024/01/16 10:53:16;;;;;;;8.60;3.97;;;;;;;;;;5110597;28;19931;-88
2024/01/16 10:55:52;;;;;;;10.27;4.10;;;;;;;;;;5094334;28;20035;-88
2024/01/16 10:58:22;;;;;;;12.88;4.15;;;;;;;;;;5086501;28;20438;-88
2024/01/16 11:00:51;;;;;;;10.52;4.32;;;;;;;;;;5106163;28;20118;-87
2024/01/16 11:03:19;;;;;;;9.45;2.90;;;;;;;;;;5112421;28;20099;-87
2024/01/16 11:05:46;;;;;;;6.13;3.65;;;;;;;;;;5125354;27;20051;-86
2024/01/16 11:08:16;;;;;;;10.05;2.92;;;;;;;;;;5121535;27;20051;-88
2024/01/16 11:10:43;;;;;;;6.75;3.40;;;;;;;;;;5094461;28;20688;-87
2024/01/16 11:13:10;;;;;;;8.50;3.22;;;;;;;;;;5087291;28;20435;-85
2024/01/16 11:15:38;;;;;;;9.18;3.08;;;;;;;;;;5092996;28;20370;-86
2024/01/16 11:18:04;;;;;;;8.20;3.20;;;;;;;;;;5111161;28;20036;-86
2024/01/16 11:20:32;;;;;;;6.93;3.15;;;;;;;;;;5093856;28;20484;-86
2024/01/16 11:23:01;;;;;;;9.70;3.30;;;;;;;;;;5106556;28;20083;-85
2024/01/16 11:25:34;;;;;;;8.38;3.75;;;;;;;;;;5088473;28;20050;-82
2024/01/16 11:28:10;;;;;;;8.60;3.40;;;;;;;;;;5092880;28;20059;-85
2024/01/16 11:30:36;;;;;;;7.65;3.30;;;;;;;;;;5078181;28;20048;-84
2024/01/16 11:33:04;;;;;;;;;;;;;;;;;;5094825;28;20043;-85
2024/01/16 11:35:38;;;;;;;12.55;4.13;;;;;;;;;;5095191;28;19927;-84
2024/01/16 11:38:05;;;;;;;7.85;3.28;;;;;;;;;;5093211;28;20093;-84
2024/01/16 11:40:35;;;;;;;10.32;3.78;;;;;;;;;;5081195;28;20040;-84
2024/01/16 11:43:21;;;;;;;13.13;3.83;;;;;;;;;;5092139;28;20087;-83
2024/01/16 11:45:50;;;;;;;9.88;4.35;;;;;;;;;;5099935;28;20096;-84
2024/01/16 11:48:18;;;;;;;14.80;3.85;;;;;;;;;;5085571;28;20370;-85
2024/01/16 11:50:44;;;;;;;10.80;4.95;;;;;;;;;;5088228;28;20039;-83
2024/01/16 11:53:11;;;;;;;12.52;4.40;;;;;;;;;;5109563;28;20043;-83
2024/01/16 11:55:37;;;;;;;;;;;;;;;;;;5110353;28;20481;-83
2024/01/16 11:58:15;;;;;;;12.02;5.00;;;;;;;;;;5109799;28;20002;-83
2024/01/16 12:00:42;;;;;;;11.82;4.68;;;;;;;;;;5109263;28;20518;-83
2024/01/16 12:03:08;;;;;;;14.00;5.50;;;;;;;;;;5110728;28;20047;-82
2024/01/16 12:05:34;;;;;;;11.20;5.10;;;;;;;;;;5075207;28;20063;-83
2024/01/16 12:08:03;;;;;;;10.98;5.35;;;;;;;;;;5090118;28;20052;-79
2024/01/16 12:10:29;;;;;;;13.68;5.90;;;;;;;;;;5080205;28;20052;-84
2024/01/16 12:12:59;;;;;;;17.35;6.07;;;;;;;;;;5102768;28;20056;-84
2024/01/16 12:15:26;;;;;;;14.57;6.82;;;;;;;;;;5091017;28;20040;-84
2024/01/16 12:17:57;;;;;;;19.98;6.50;;;;;;;;;;5109776;28;20854;-84
2024/01/16 12:20:23;;;;;;;18.80;6.32;;;;;;;;;;5104535;28;20066;-83
2024/01/16 12:22:57;;;;;;;17.23;6.88;;;;;;;;;;5088976;28;20562;-84
2024/01/16 12:25:23;;;;;;;24.55;8.20;;;;;;;;;;5089951;28;20105;-83
2024/01/16 12:27:59;;;;;;;19.15;7.15;;;;;;;;;;5091806;28;20047;-83
2024/01/16 12:30:28;;;;;;;17.50;7.22;;;;;;;;;;5116335;27;20056;-83
2024/01/16 12:33:03;;;;;;;20.38;7.63;;;;;;;;;;5109830;28;20044;-84
2024/01/16 12:35:29;;;;;;;19.27;7.80;;;;;;;;;;5098306;28;20067;-83
2024/01/16 12:37:55;;;;;;;;;;;;;;;;;;5091418;28;20047;-84
2024/01/16 12:40:21;;;;;;;16.08;7.22;;;;;;;;;;5101684;28;19920;-84
2024/01/16 12:42:47;;;;;;;;;;;;;;;;;;5078747;28;20511;-84
2024/01/16 12:45:13;;;;;;;20.63;7.33;;;;;;;;;;5118561;28;19921;-83
2024/01/16 12:47:39;;;;;;;;;;;;;;;;;;5107477;28;20035;-83
2024/01/16 12:50:06;;;;;;;16.52;7.03;;;;;;;;;;5099697;28;19927;-83
2024/01/16 12:52:32;;;;;;;15.90;6.88;;;;;;;;;;5087715;28;20382;-84
2024/01/16 12:54:58;;;;;;;;;;;;;;;;;;5096722;28;20048;-80
2024/01/16 12:57:25;;;;;;;14.02;7.05;;;;;;;;;;5092701;28;20028;-83
2024/01/16 12:59:51;;;;;;;16.95;6.40;;;;;;;;;;5092492;28;20047;-83
2024/01/16 13:02:24;;;;;;;22.58;6.95;;;;;;;;;;5061493;28;20048;-83
2024/01/16 13:05:02;;;;;;;13.52;5.78;;;;;;;;;;5122060;27;20609;-83
2024/01/16 13:07:31;;;;;;;12.80;5.88;;;;;;;;;;5093842;28;20548;-83
2024/01/16 13:10:07;;;;;;;14.80;6.22;;;;;;;;;;5112251;28;20056;-83
2024/01/16 13:12:33;;;;;;;14.10;5.90;;;;;;;;;;5096249;28;20131;-83
2024/01/16 13:14:59;;;;;;;;;;;;;;;;;;5112609;28;20043;-83
2024/01/16 13:17:25;;;;;;;10.50;5.05;;;;;;;;;;5113513;28;19950;-82
2024/01/16 13:19:51;;;;;;;10.82;4.90;;;;;;;;;;5089691;28;20044;-83
2024/01/16 13:22:17;;;;;;;15.20;5.10;;;;;;;;;;5078944;28;20054;-83
2024/01/16 13:24:43;;;;;;;20.58;5.38;;;;;;;;;;5112435;28;20047;-82
2024/01/16 13:27:12;;;;;;;12.90;4.60;;;;;;;;;;5110452;28;20092;-82
2024/01/16 13:29:40;;;;;;;10.13;4.30;;;;;;;;;;5111809;28;20044;-82
2024/01/16 13:32:06;;;;;;;15.82;4.80;;;;;;;;;;5113019;28;20047;-82
2024/01/16 13:34:32;;;;;;;10.63;4.25;;;;;;;;;;5113087;28;20039;-82
2024/01/16 13:36:59;;;;;;;8.50;4.40;;;;;;;;;;5098973;28;20422;-82
2024/01/16 13:39:26;;;;;;;11.38;3.70;;;;;;;;;;5096140;28;20058;-82
2024/01/16 13:41:52;;;;;;;9.70;4.35;;;;;;;;;;5088825;28;20558;-82
2024/01/16 13:44:18;;;;;;;;;;;;;;;;;;5083498;28;20138;-82
2024/01/16 13:46:44;;;;;;;15.45;4.50;;;;;;;;;;5090076;28;20367;-82
2024/01/16 13:49:10;;;;;;;7.70;3.90;;;;;;;;;;5089764;28;20047;-80
2024/01/16 13:51:36;;;;;;;11.98;3.65;;;;;;;;;;5103359;28;20044;-82
2024/01/16 13:54:03;;;;;;;;;;;;;;;;;;5108897;28;20073;-82
2024/01/16 13:56:29;;;;;;;11.40;3.25;;;;;;;;;;5112081;28;19920;-82
2024/01/16 13:58:55;;;;;;;;;;;;;;;;;;5111523;28;20043;-82
2024/01/16 14:01:21;;;;;;;9.10;3.15;;;;;;;;;;5109868;28;20315;-83
2024/01/16 14:03:48;;;;;;;13.82;3.55;;;;;;;;;;5088824;28;20530;-83
2024/01/16 14:06:15;;;;;;;7.68;3.00;;;;;;;;;;5111590;28;20051;-82
2024/01/16 14:08:41;;;;;;;8.95;2.95;;;;;;;;;;5110999;28;20051;-82
2024/01/16 14:11:07;;;;;;;;;;;;;;;;;;5111038;27;20476;-82
2024/01/16 14:13:33;;;;;;;7.57;3.05;;;;;;;;;;5113972;27;19920;-83
2024/01/16 14:15:59;;;;;;;10.15;2.80;;;;;;;;;;5094083;28;20039;-83
2024/01/16 14:18:25;;;;;;;8.20;3.25;;;;;;;;;;5095242;28;20092;-81
2024/01/16 14:20:51;;;;;;;9.65;2.67;;;;;;;;;;5094617;27;20055;-81
2024/01/16 14:23:17;;;;;;;;;;;;;;;;;;5096027;28;20422;-81
2024/01/16 14:25:45;;;;;;;5.75;2.53;;;;;;;;;;5104773;28;19927;-79
2024/01/16 14:28:12;;;;;;;8.18;2.90;;;;;;;;;;5108889;28;20046;-82
2024/01/16 14:30:38;;;;;;;8.88;2.60;;;;;;;;;;5093001;28;20050;-80
2024/01/16 14:33:06;;;;;;;6.80;2.50;;;;;;;;;;5092304;28;20044;-80
2024/01/16 14:35:33;;;;;;;6.50;2.70;;;;;;;;;;5101232;27;20065;-81
2024/01/16 14:37:59;;;;;;;12.50;2.90;;;;;;;;;;5108855;27;20396;-81
2024/01/16 14:40:25;;;;;;;;;;;;;;;;;;5092527;28;20059;-80
2024/01/16 14:42:56;;;;;;;7.20;2.55;;;;;;;;;;5107794;27;19930;-80
2024/01/16 14:45:23;;;;;;;8.60;2.70;;;;;;;;;;5108521;27;20047;-80
2024/01/16 14:47:50;;;;;;;5.43;2.35;;;;;;;;;;5131303;27;20047;-81
2024/01/16 14:50:17;;;;;;;12.75;3.05;;;;;;;;;;5110958;27;20047;-80
2024/01/16 14:52:43;;;;;;;7.85;2.60;;;;;;;;;;5108939;28;20043;-80
2024/01/16 14:55:11;;;;;;;13.10;3.22;;;;;;;;;;5108477;28;20541;-79
2024/01/16 14:57:51;;;;;;;9.52;2.63;;;;;;;;;;5108185;28;20048;-80
2024/01/16 15:00:26;;;;;;;8.30;2.80;;;;;;;;;;5110660;27;20051;-80
2024/01/16 15:02:53;;;;;;;7.43;2.40;;;;;;;;;;5114147;27;20492;-80
2024/01/16 15:05:22;;;;;;;6.70;2.58;;;;;;;;;;5098204;27;20038;-80